• Join FlightAware (Why Join?)
  • Login
  • US Flag 
05:02PM EDT


 

Airport Tracker/Info


-or-


 

Live Flight TrackerFlight Track Log ✈ LXJ537 ✈ 03-May-2013 ✈ KSFO - KTEB

Flight Track Log - Related Links

Times and Time Zones

All times are in EDT time to prevent confusion due to time zone crossing. See the LXJ537 flight status page for this flight to view local times or setup timezone preferences in your user account.

Time Position Orientation Groundspeed Altitude Reporting Facility
EDT Latitude Longitude Course Direction KTS MPH feet Rate Location/Type
03:23PM 37.6500 -122.3333 47° Northeast 226 260 2,700  Level Northern Cal TRACON
03:24PM 37.7000 -122.2667 47° Northeast 240 276 6,800 4,200 Climbing Northern Cal TRACON
03:24PM 37.7183 -122.2444 44° Northeast 255 293 8,000 3,180 Climbing Oakland Center
03:25PM 37.7558 -122.1586 61° Northeast 284 327 11,200 2,700 Climbing Oakland Center
03:26PM 37.7875 -122.0456 70° East 337 388 13,600 2,580 Climbing Oakland Center
03:27PM 37.8208 -121.9244 71° East 363 418 16,600 2,700 Climbing Oakland Center
03:28PM 37.8572 -121.7975 70° East 384 442 19,200 2,520 Climbing Oakland Center
03:29PM 37.8939 -121.6656 71° East 396 456 21,800 2,520 Climbing Oakland Center
03:30PM 37.9306 -121.5303 71° East 406 467 24,400 2,400 Climbing Oakland Center
03:31PM 37.9722 -121.3683 72° East 421 484 26,800 2,040 Climbing Oakland Center
03:32PM 38.0011 -121.2167 76° East 440 506 28,700 1,740 Climbing Oakland Center
03:33PM 38.0311 -121.0619 76° East 453 521 30,500 1,620 Climbing Oakland Center
03:34PM 38.0614 -120.9036 76° East 462 532 32,100 1,680 Climbing Oakland Center
03:35PM 38.0981 -120.7103 76° East 472 543 34,000 1,620 Climbing Oakland Center
03:36PM 38.1281 -120.5461 77° East 477 549 35,500 1,440 Climbing Oakland Center
03:37PM 38.1581 -120.3814 77° East 480 552 37,000 1,260 Climbing Oakland Center
03:39PM 38.1889 -120.2169 77° East 480 552 38,200 1,080 Climbing Oakland Center
03:40PM 38.2189 -120.0508 77° East 481 554 39,300 1,020 Climbing Oakland Center
03:41PM 38.2486 -119.8853 77° East 480 552 40,400 780 Climbing Oakland Center
03:42PM 38.2789 -119.7203 77° East 478 550 41,000 240 Climbing Oakland Center
03:43PM 38.3139 -119.5181 78° East 487 560 41,000  Level Oakland Center
03:44PM 38.3397 -119.3731 77° East 495 570 41,000  Level Oakland Center
03:45PM 38.3742 -119.1667 78° East 499 574 41,000  Level Oakland Center
03:46PM 38.4036 -118.9964 78° East 494 568 41,000  Level Oakland Center
03:47PM 38.4331 -118.8250 78° East 496 571 41,000  Level Oakland Center
03:48PM 38.4608 -118.6542 78° East 495 570 41,000  Level Oakland Center
03:49PM 38.4894 -118.4806 78° East 500 575 41,000  Level Oakland Center
03:50PM 38.5183 -118.3089 78° East 498 573 41,000  Level Oakland Center
03:51PM 38.5461 -118.1375 78° East 496 571 41,000  Level Oakland Center
03:52PM 38.5794 -117.9356 78° East 498 573 41,000  Level Oakland Center
03:53PM 38.6072 -117.7608 78° East 498 573 41,000  Level Oakland Center
03:54PM 38.6336 -117.5875 79° East 496 571 41,000  Level Oakland Center
03:55PM 38.6619 -117.4125 78° East 498 573 41,000  Level Oakland Center
03:56PM 38.6772 -117.3064 80° East 500 575 41,000  Level Salt Lake Center
03:57PM 38.7103 -117.1322 76° East 500 575 41,000  Level Salt Lake Center
03:57PM 38.7242 -117.0619 76° East 501 577 41,000  Level Oakland Center
03:58PM 38.7578 -116.8861 76° East 504 580 41,000  Level Oakland Center
03:59PM 38.7772 -116.7808 77° East 504 580 41,000  Level Salt Lake Center
04:00PM 38.8089 -116.6058 77° East 503 579 41,000  Level Salt Lake Center
04:00PM 38.8286 -116.5019 76° East 499 574 41,000  Level Oakland Center
04:01PM 38.8606 -116.3258 77° East 504 580 41,000  Level Oakland Center
04:02PM 38.8725 -116.2564 78° East 505 581 41,000  Level Salt Lake Center
04:03PM 38.9111 -116.0458 77° East 503 579 41,000  Level Salt Lake Center
04:04PM 38.9414 -115.8714 77° East 501 577 41,000  Level Salt Lake Center
04:05PM 38.9728 -115.6936 77° East 507 583 41,000  Level Salt Lake Center
04:06PM 39.0044 -115.5147 77° East 511 588 41,000  Level Salt Lake Center
04:07PM 39.0378 -115.3272 77° East 512 589 41,000  Level Salt Lake Center
04:08PM 39.0686 -115.1508 77° East 509 586 41,000  Level Salt Lake Center
04:09PM 39.0997 -114.9714 77° East 512 589 41,000  Level Salt Lake Center
04:10PM 39.1294 -114.7947 78° East 508 585 41,000  Level Salt Lake Center
04:11PM 39.1600 -114.6169 77° East 507 583 41,000  Level Salt Lake Center
04:12PM 39.1889 -114.4236 79° East 497 572 41,000  Level Salt Lake Center
04:13PM 39.2178 -114.2639 77° East 509 586 41,000  Level Salt Lake Center
04:14PM 39.2519 -114.0511 78° East 506 582 41,000  Level Salt Lake Center
04:15PM 39.2794 -113.8764 78° East 499 574 41,000  Level Salt Lake Center
04:16PM 39.3081 -113.7008 78° East 497 572 41,000  Level Salt Lake Center
04:17PM 39.3350 -113.5264 79° East 496 571 41,000  Level Salt Lake Center
04:18PM 39.3622 -113.3528 78° East 494 568 41,000  Level Salt Lake Center
04:19PM 39.3886 -113.1783 79° East 494 568 41,000  Level Salt Lake Center
04:20PM 39.4147 -113.0056 79° East 491 565 41,000  Level Salt Lake Center
04:21PM 39.4414 -112.8297 79° East 496 571 41,000  Level Salt Lake Center
04:22PM 39.4728 -112.6250 79° East 492 566 41,000  Level Salt Lake Center
04:23PM 39.4978 -112.4533 79° East 489 563 41,000  Level Salt Lake Center
04:24PM 39.5233 -112.2814 79° East 489 563 41,000  Level Salt Lake Center
04:25PM 39.5483 -112.1100 79° East 488 562 41,000  Level Salt Lake Center
04:26PM 39.5736 -111.9386 79° East 487 560 41,000  Level Salt Lake Center
04:27PM 39.5972 -111.7681 80° East 486 559 41,000  Level Salt Lake Center
04:28PM 39.6200 -111.5978 80° East 484 557 41,000  Level Salt Lake Center
04:29PM 39.6492 -111.3939 79° East 483 556 41,000  Level Salt Lake Center
04:30PM 39.6706 -111.2281 80° East 484 557 41,000  Level Salt Lake Center
04:31PM 39.6931 -111.0633 80° East 484 557 41,000  Level Salt Lake Center
04:32PM 39.7194 -110.8703 80° East 486 559 41,000  Level Salt Lake Center
04:33PM 39.7403 -110.7042 81° East 487 560 41,000  Level Salt Lake Center
04:34PM 39.7653 -110.5111 80° East 486 559 41,000  Level Salt Lake Center
04:36PM 39.7867 -110.3450 80° East 488 562 41,000  Level Salt Lake Center
04:37PM 39.8078 -110.1800 80° East 484 557 41,000  Level Salt Lake Center
04:38PM 39.8314 -109.9867 81° East 484 557 41,000  Level Salt Lake Center
04:39PM 39.8517 -109.8208 81° East 485 558 41,000  Level Salt Lake Center
04:40PM 39.8753 -109.6289 81° East 482 555 41,000  Level Salt Lake Center
04:40PM 39.8781 -109.6006 83° East 479 551 41,000  Level Denver Center
04:41PM 39.9042 -109.3783 81° East 482 555 41,000  Level Denver Center
04:42PM 39.9269 -109.1839 81° East 483 556 41,000  Level Denver Center
04:43PM 39.9378 -109.1019 80° East 484 557 41,000  Level Salt Lake Center
04:44PM 39.9569 -108.9344 81° East 484 557 41,000  Level Salt Lake Center
04:44PM 39.9667 -108.8503 81° East 483 556 41,000  Level Denver Center
04:45PM 39.9881 -108.6550 82° East 482 555 41,000  Level Denver Center
04:46PM 40.0064 -108.4886 82° East 481 554 41,000  Level Denver Center
04:47PM 40.0278 -108.2958 82° East 479 551 41,000  Level Denver Center
04:48PM 40.0458 -108.1289 82° East 483 556 41,000  Level Denver Center
04:49PM 40.0636 -107.9625 82° East 483 556 41,000  Level Denver Center
04:50PM 40.1008 -107.7747 75° East 480 552 41,000  Level Denver Center
04:51PM 40.1394 -107.6175 72° East 477 549 41,000  Level Denver Center
04:53PM 40.1703 -107.4839 73° East 478 550 41,000  Level Denver Center
04:54PM 40.2175 -107.2708 74° East 479 551 41,000  Level Denver Center
04:55PM 40.2597 -107.0858 73° East 476 548 41,000  Level Denver Center
04:56PM 40.2961 -106.9244 73° East 481 554 41,000  Level Denver Center
04:57PM 40.3311 -106.7661 74° East 476 548 41,000  Level Denver Center
04:58PM 40.3694 -106.6003 73° East 474 545 41,000  Level Denver Center
04:59PM 40.4075 -106.4203 74° East 477 549 41,000  Level Denver Center
05:00PM 40.4475 -106.2358 74° East 472 543 41,000  Level Denver Center
05:01PM 40.4806 -106.0794 74° East 472 543 41,000  Level Denver Center
05:02PM 40.5172 -105.9122 74° East 471 542 41,000  Level Denver Center
05:03PM 40.5567 -105.7194 75° East 463 533 41,000  Level Denver Center
05:04PM 40.5925 -105.5506 74° East 469 540 41,000  Level Denver Center
05:05PM 40.6275 -105.3831 75° East 470 541 41,000  Level Denver Center
05:06PM 40.6628 -105.2147 75° East 471 542 41,000  Level Denver Center
05:07PM 40.6961 -105.0464 75° East 470 541 41,000  Level Denver Center
05:08PM 40.7317 -104.8775 74° East 470 541 41,000  Level Denver Center
05:09PM 40.7650 -104.7086 75° East 469 540 41,000  Level Denver Center
05:10PM 40.7986 -104.5400 75° East 468 539 41,000  Level Denver Center
05:11PM 40.8319 -104.3714 75° East 469 540 41,000  Level Denver Center
05:12PM 40.8711 -104.1753 75° East 468 539 41,000  Level Denver Center
05:13PM 40.9036 -104.0078 76° East 467 537 41,000  Level Denver Center
05:14PM 40.9356 -103.8400 76° East 465 535 41,000  Level Denver Center
05:15PM 40.9683 -103.6717 75° East 466 536 41,000  Level Denver Center
05:16PM 40.9986 -103.5053 76° East 469 540 41,000  Level Denver Center
05:17PM 41.0344 -103.3167 76° East 473 544 41,000  Level Denver Center
05:18PM 41.0644 -103.1569 76° East 470 541 41,000  Level Denver Center
05:19PM 41.0978 -102.9653 77° East 474 545 41,000  Level Denver Center
05:20PM 41.1103 -102.7986 84° East 478 550 41,000  Level Denver Center
05:22PM 41.1236 -102.6325 84° East 475 547 41,000  Level Denver Center
05:23PM 41.1406 -102.4122 84° East 471 542 41,000  Level Denver Center
05:24PM 41.1556 -102.2200 84° East 469 540 41,000  Level Denver Center
05:25PM 41.1675 -102.0542 84° East 470 541 41,000  Level Denver Center
05:26PM 41.1792 -101.8881 85° East 474 545 41,000  Level Denver Center
05:27PM 41.1931 -101.6928 85° East 475 547 41,000  Level Denver Center
05:28PM 41.2019 -101.5536 85° East 475 547 41,000  Level Denver Center
05:29PM 41.2181 -101.3317 84° East 472 543 41,000  Level Denver Center
05:30PM 41.2286 -101.1644 85° East 472 543 41,000  Level Denver Center
05:31PM 41.2450 -100.9125 85° East 475 547 41,000  Level Denver Center
05:32PM 41.2567 -100.7172 85° East 473 544 41,000  Level Denver Center
05:33PM 41.2669 -100.5503 85° East 471 542 41,000  Level Denver Center
05:35PM 41.2767 -100.3831 86° East 471 542 41,000  Level Denver Center
05:36PM 41.2908 -100.1603 85° East 472 543 41,000  Level Denver Center
05:37PM 41.3006 -99.9658 86° East 472 543 41,000  Level Denver Center
05:38PM 41.3108 -99.7708 86° East 473 544 41,000  Level Denver Center
05:39PM 41.3206 -99.5783 86° East 469 540 41,000  Level Denver Center
05:40PM 41.3281 -99.4239 86° East 469 540 41,000  Level Denver Center
05:41PM 41.3386 -99.2167 86° East 467 537 41,000  Level Denver Center
05:42PM 41.3469 -99.0419 86° East 469 540 41,000  Level Denver Center
05:43PM 41.3547 -98.8664 87° East 468 539 41,000  Level Denver Center
05:44PM 41.3572 -98.7822 88° East 469 540 41,000  Level Minneapolis Center
05:45PM 41.3636 -98.6436 86° East 469 540 41,000  Level Minneapolis Center
05:46PM 41.3722 -98.4439 87° East 470 541 41,000  Level Minneapolis Center
05:47PM 41.3947 -98.2361 82° East 470 541 41,000  Level Minneapolis Center
05:48PM 41.4319 -98.0253 77° East 469 540 41,000  Level Minneapolis Center
05:49PM 41.4597 -97.8558 78° East 469 540 41,000  Level Minneapolis Center
05:50PM 41.4878 -97.6858 78° East 469 540 41,000  Level Minneapolis Center
05:51PM 41.5211 -97.4817 78° East 469 540 41,000  Level Minneapolis Center
05:52PM 41.5442 -97.3447 77° East 472 543 41,000  Level Minneapolis Center
05:53PM 41.5758 -97.1400 78° East 470 541 41,000  Level Minneapolis Center
05:54PM 41.6022 -96.9686 78° East 471 542 41,000  Level Minneapolis Center
05:55PM 41.6292 -96.7975 78° East 471 542 41,000  Level Minneapolis Center
05:56PM 41.6556 -96.6272 78° East 467 537 41,000  Level Minneapolis Center
05:57PM 41.6828 -96.4561 78° East 467 537 41,000  Level Minneapolis Center
05:58PM 41.7083 -96.2853 79° East 465 535 41,000  Level Minneapolis Center
05:59PM 41.7342 -96.1136 79° East 466 536 41,000  Level Minneapolis Center
06:00PM 41.7631 -95.9075 79° East 465 535 41,000  Level Minneapolis Center
06:02PM 41.7883 -95.7361 79° East 466 536 41,000  Level Minneapolis Center
06:03PM 41.8186 -95.5297 79° East 470 541 41,000  Level Minneapolis Center
06:04PM 41.8422 -95.3569 80° East 471 542 41,000  Level Minneapolis Center
06:05PM 41.8667 -95.1853 79° East 468 539 41,000  Level Minneapolis Center
06:06PM 41.8856 -95.0483 79° East 467 537 41,000  Level Minneapolis Center
06:07PM 41.9128 -94.8436 80° East 466 536 41,000  Level Minneapolis Center
06:08PM 41.9356 -94.6731 80° East 465 535 41,000  Level Minneapolis Center
06:09PM 41.9644 -94.4689 79° East 465 535 41,000  Level Minneapolis Center
06:10PM 41.9875 -94.2978 80° East 465 535 41,000  Level Minneapolis Center
06:11PM 42.0097 -94.1269 80° East 464 534 41,000  Level Minneapolis Center
06:12PM 42.0311 -93.9525 81° East 471 542 41,000  Level Minneapolis Center
06:13PM 42.0528 -93.7942 80° East 467 537 41,000  Level Minneapolis Center
06:14PM 42.0778 -93.5894 81° East 466 536 41,000  Level Minneapolis Center
06:15PM 42.0994 -93.4186 80° East 467 537 41,000  Level Minneapolis Center
06:16PM 42.1208 -93.2483 80° East 466 536 41,000  Level Minneapolis Center
06:17PM 42.1411 -93.0747 81° East 471 542 41,000  Level Minneapolis Center
06:18PM 42.1619 -92.9017 81° East 472 543 41,000  Level Minneapolis Center
06:19PM 42.1833 -92.7294 80° East 472 543 41,000  Level Minneapolis Center
06:20PM 42.2081 -92.5217 81° East 472 543 41,000  Level Minneapolis Center
06:21PM 42.2317 -92.3131 81° East 472 543 41,000  Level Minneapolis Center
06:22PM 42.2503 -92.1403 82° East 473 544 41,000  Level Minneapolis Center
06:23PM 42.2703 -91.9664 81° East 471 542 41,000  Level Chicago Center
06:24PM 42.2886 -91.7914 82° East 476 548 41,000  Level Chicago Center
06:25PM 42.3083 -91.6189 81° East 474 545 41,000  Level Chicago Center
06:27PM 42.3294 -91.4119 82° East 472 543 41,000  Level Chicago Center
06:28PM 42.3472 -91.2394 82° East 473 544 41,000  Level Chicago Center
06:29PM 42.3658 -91.0650 82° East 475 547 41,000  Level Chicago Center
06:30PM 42.3822 -90.8897 83° East 477 549 41,000 300 Level Chicago Center
06:31PM 42.3994 -90.6819 84° East 468 539 41,700 780 Climbing Chicago Center
06:32PM 42.3894 -90.5133 95° East 456 525 42,700 840 Climbing Chicago Center
06:33PM 42.3808 -90.3453 94° East 453 521 43,500 720 Climbing Chicago Center
06:34PM 42.3719 -90.1794 94° East 448 516 44,200 480 Climbing Chicago Center
06:35PM 42.3619 -90.0119 95° East 451 519 44,500 300 Climbing Chicago Center
06:36PM 42.3500 -89.8092 94° East 457 526 44,900 240 Climbing Chicago Center
06:37PM 42.3394 -89.6358 95° East 462 532 45,000  Climbing Chicago Center
06:38PM 42.3283 -89.4600 95° East 467 537 45,000  Level Chicago Center
06:39PM 42.3167 -89.2833 95° East 472 543 45,000  Level Chicago Center
06:40PM 42.3039 -89.0800 95° East 468 539 45,000  Level Chicago Center
06:41PM 42.2925 -88.9053 95° East 468 539 45,000  Level Chicago Center
06:42PM 42.2806 -88.7339 95° East 469 540 45,000  Level Chicago Center
06:43PM 42.2681 -88.5589 95° East 468 539 45,000  Level Chicago Center
06:44PM 42.2550 -88.3864 96° East 464 534 45,000  Level Chicago Center
06:45PM 42.2419 -88.2108 96° East 468 539 45,000  Level Chicago Center
06:46PM 42.2494 -87.9989 87° East 468 539 45,000  Level Chicago Center
06:47PM 42.2547 -87.8208 88° East 473 544 45,000  Level Chicago Center
06:48PM 42.2597 -87.6433 88° East 473 544 45,000  Level Chicago Center
06:49PM 42.2650 -87.4653 88° East 474 545 45,000  Level Chicago Center
06:50PM 42.2694 -87.2881 88° East 474 545 45,000  Level Chicago Center
06:51PM 42.2739 -87.1092 88° East 477 549 45,000  Level Chicago Center
06:52PM 42.2772 -86.9322 88° East 475 547 45,000  Level Chicago Center
06:53PM 42.2831 -86.7183 88° East 475 547 45,000  Level Chicago Center
06:54PM 42.2861 -86.5614 88° East 476 548 45,000  Level Chicago Center
06:55PM 42.2886 -86.3828 89° East 477 549 45,000  Level Chicago Center
06:56PM 42.2922 -86.1817 89° East 476 548 45,000  Level Chicago Center
06:58PM 42.2942 -86.0053 89° East 474 545 45,000  Level Chicago Center
06:59PM 42.2969 -85.8281 89° East 475 547 45,000  Level Chicago Center
07:00PM 42.3000 -85.6142 89° East 478 550 45,000  Level Chicago Center
07:01PM 42.3022 -85.4353 89° East 480 552 45,000  Level Chicago Center
07:01PM 42.3069 -85.3064 87° East 466 536 45,000  Level Cleveland Center
07:02PM 42.3078 -85.1294 90° East 466 536 45,000  Level Cleveland Center
07:03PM 42.3083 -84.9497 90° East 466 536 45,000  Level Cleveland Center
07:04PM 42.3108 -84.7728 89° East 466 536 45,000  Level Cleveland Center
07:05PM 42.3047 -84.5956 93° East 472 543 45,000  Level Cleveland Center
07:06PM 42.3044 -84.4214 90° East 472 543 45,000  Level Cleveland Center
07:07PM 42.3039 -84.2472 90° East 466 536 45,000  Level Cleveland Center
07:08PM 42.3053 -84.0703 89° East 466 536 45,000  Level Cleveland Center
07:09PM 42.3061 -83.8964 90° East 461 531 45,000  Level Cleveland Center
07:10PM 42.3047 -83.7250 91° East 461 531 45,000  Level Cleveland Center
07:11PM 42.3028 -83.5619 91° East 461 531 45,000  Level Cleveland Center
07:12PM 42.3031 -83.3878 90° East 462 532 45,000  Level Cleveland Center
07:13PM 42.3011 -83.2053 91° East 470 541 45,000  Level Cleveland Center
07:14PM 42.2986 -83.0339 91° East 470 541 45,000  Level Cleveland Center
07:15PM 42.2961 -82.8542 91° East 470 541 45,000  Level Cleveland Center
07:16PM 42.2953 -82.6800 90° East 470 541 45,000  Level Cleveland Center
07:17PM 42.2900 -82.5058 92° East 465 535 45,000  Level Cleveland Center
07:18PM 42.2864 -82.3317 92° East 465 535 45,000  Level Cleveland Center
07:19PM 42.2828 -82.1547 92° East 460 529 45,000  Level Cleveland Center
07:20PM 42.2831 -81.9639 90° East 460 529 45,000  Level Cleveland Center
07:21PM 42.2789 -81.7900 92° East 469 540 45,000  Level Cleveland Center
07:22PM 42.2742 -81.6269 92° East 469 540 45,000  Level Cleveland Center
07:23PM 42.2714 -81.4531 91° East 464 534 45,000  Level Cleveland Center
07:24PM 42.2642 -81.2761 93° East 464 534 45,000  Level Cleveland Center
07:25PM 42.2611 -81.1022 91° East 464 534 45,000  Level Cleveland Center
07:26PM 42.2556 -80.9283 92° East 464 534 45,000  Level Cleveland Center
07:27PM 42.2308 -80.7347 100° East 464 534 45,000  Level Cleveland Center
07:28PM 42.2081 -80.5664 100° East 464 534 45,000  Level Cleveland Center
07:29PM 42.1828 -80.3928 101° East 469 540 45,000  Level Cleveland Center
07:30PM 42.1594 -80.2219 100° East 464 534 45,000  Level Cleveland Center
07:31PM 42.1339 -80.0511 101° East 464 534 45,000  Level Cleveland Center
07:32PM 42.1119 -79.8806 100° East 464 534 45,000  Level Cleveland Center
07:33PM 42.0858 -79.7075 101° East 464 534 45,000  Level Cleveland Center
07:34PM 42.0594 -79.5372 102° East 469 540 45,000  Level Cleveland Center
07:35PM 42.0350 -79.3669 101° East 469 540 45,000  Level Cleveland Center
07:36PM 42.0078 -79.1917 102° East 469 540 45,000  Level Cleveland Center
07:37PM 41.9828 -79.0217 101° East 469 540 45,000  Level Cleveland Center
07:38PM 41.9553 -78.8464 102° East 469 540 45,000  Level Cleveland Center
07:39PM 41.9275 -78.6742 102° East 469 540 45,000 -840 Level Cleveland Center
07:41PM 41.8800 -78.3736 102° East 480 552 42,800 -1,380 Descending New York Center
07:42PM 41.8533 -78.2061 102° East 474 545 41,200 -1,680 Descending New York Center
07:43PM 41.8278 -78.0447 102° East 462 532 39,500 -1,680 Descending New York Center
07:44PM 41.8022 -77.8831 102° East 455 524 37,900 -1,680 Descending New York Center
07:45PM 41.7706 -77.7100 104° East 461 531 36,300 -1,500 Descending New York Center
07:46PM 41.7431 -77.5375 102° East 466 536 35,000 -660 Descending New York Center
07:47PM 41.7150 -77.3708 103° East 466 536 35,000  Level New York Center
07:48PM 41.6869 -77.2011 102° East 466 536 35,000  Level New York Center
07:49PM 41.6475 -77.0419 108° East 473 544 35,000 -60 Level New York Center
07:50PM 41.6019 -76.8739 110° East 478 550 34,900 -1,380 Descending New York Center
07:51PM 41.5547 -76.6950 109° East 478 550 32,400 -2,460 Descending New York Center
07:52PM 41.5086 -76.5331 111° Southeast 473 544 30,000 -2,400 Descending New York Center
07:53PM 41.4644 -76.3658 109° East 466 536 27,600 -2,160 Descending New York Center
07:54PM 41.4258 -76.2133 109° East 466 536 25,700 -2,160 Descending New York Center
07:55PM 41.3786 -76.0628 113° Southeast 463 533 23,400 -2,280 Descending New York Center
07:56PM 41.3369 -75.9186 111° Southeast 440 506 21,200 -2,100 Descending New York Center
07:57PM 41.2972 -75.7775 110° East 422 486 19,200 -1,740 Descending New York Center
07:58PM 41.2531 -75.6336 112° Southeast 422 486 17,700 -1,920 Descending New York Center
07:59PM 41.2125 -75.5039 113° Southeast 395 455 15,500 -2,340 Descending New York Center
08:00PM 41.1697 -75.3739 114° Southeast 377 434 13,100 -2,160 Descending New York Center
08:01PM 41.1306 -75.2583 114° Southeast 347 399 11,200 -1,800 Descending New York Center
08:02PM 41.1006 -75.1711 115° Southeast 309 356 9,500 -1,740 Descending New York Center
08:03PM 41.0683 -75.0781 115° Southeast 278 320 7,900 -1,680 Descending New York Center
08:04PM 41.0383 -74.9881 114° Southeast 249 287 6,200 -1,140 Descending New York Center
08:05PM 41.0333 -74.8944 94° East 239 275 5,600 -1,080 Descending New York Center
08:06PM 41.0303 -74.8006 92° East 256 295 4,100 -840 Descending New York Center
08:07PM 41.0289 -74.7208 91° East 251 289 4,000 -120 Descending New York Center
08:08PM 41.0300 -74.6219 89° East 251 289 3,900 -540 Descending New York Center
08:09PM 41.0306 -74.5422 89° East 246 283 3,000 -480 Descending New York Center
08:10PM 41.0297 -74.4403 91° East 246 283 3,000  Level New York Center
08:11PM 41.0333 -74.3500 87° East 244 281 3,000  Level New York TRACON
08:12PM 41.0333 -74.2667 90° East 257 296 3,000 -540 Level New York TRACON
08:13PM 41.0333 -74.1667 90° East 248 285 2,000 -540 Descending New York TRACON
08:14PM 41.0167 -74.0833 105° East 254 292 2,000 -120 Level New York TRACON
08:15PM 40.9667 -74.0500 153° Southeast 210 242 1,800 -420 Descending New York TRACON
08:16PM 40.9167 -74.0500 180° South 163 188 1,200 -660 Descending New York TRACON
08:17PM 40.8833 -74.0500 180° South 116 133 500 -720 Descending New York TRACON
08:19PM 40.8500 -74.0500 180° South  Level FlightAware Approximate
08:26PM 40.8501 -74.0608 180° South  Level Estimated
08:27PM 40.8501 -74.0608 180° South  Level Estimated